< < Back
Terminal Aerodrome Forecast


Current Version              Previous Versions:   1  2  3  4  5  6  7  8  9  

Terminal Aerodrome Forecast

909
FTUS42 KGSP 252344 CCA
TAFAND
TAF COR
KAND 252344Z 2600/2624 07004KT P6SM OVC150
     FM260300 33006KT 6SM -RA BR OVC030
     FM260800 34010KT 4SM -RA BR OVC026
     FM261100 33004KT 4SM -RA BR OVC020
     FM261500 28009KT P6SM -RA OVC035
     FM261700 28009KT P6SM BKN100=

Latest METAR

276
SAUS70 KWBC 260100 RRA
MTRAND
METAR KAND 260056Z AUTO 31003KT 10SM OVC110 11/08 A3006 RMK AO2 SLP176
T01060078


USA.gov is the U.S. government's official web portal to all federal, state and local government web resources and services.